createdAt,value
2023-04-02T00:02:33.034Z,100948.63
2023-04-02T00:05:29.174Z,100951.50
2023-04-02T00:07:58.917Z,100956.97
2023-04-02T00:10:27.926Z,100961.56
2023-04-02T00:13:06.610Z,100955.34
2023-04-02T00:15:33.943Z,100963.38
2023-04-02T00:18:03.205Z,100968.66
2023-04-02T00:20:32.690Z,100970.38
2023-04-02T00:22:59.411Z,100973.16
2023-04-02T00:27:56.843Z,100966.06
2023-04-02T00:30:23.441Z,100978.59
2023-04-02T00:32:51.129Z,100977.63
2023-04-02T00:35:24.421Z,100983.00
2023-04-02T00:37:51.247Z,100981.28
2023-04-02T00:40:23.804Z,100986.44
2023-04-02T00:42:52.258Z,100993.59
2023-04-02T00:45:24.100Z,101007.09
2023-04-02T00:47:51.596Z,101003.56
2023-04-02T00:50:27.765Z,101006.13
2023-04-02T00:52:56.390Z,101008.91
2023-04-02T00:55:27.296Z,101010.63
2023-04-02T00:58:01.066Z,101008.06
2023-04-02T01:00:29.466Z,101014.16
2023-04-02T01:03:28.815Z,101020.25
2023-04-02T01:06:00.766Z,101018.34
2023-04-02T01:08:34.829Z,101027.31
2023-04-02T01:11:11.296Z,101024.97
2023-04-02T01:13:44.858Z,101028.50
2023-04-02T01:16:20.668Z,101039.22
2023-04-02T01:18:57.406Z,101046.53
2023-04-02T01:21:38.312Z,101037.94
2023-04-02T01:24:07.704Z,101039.63
2023-04-02T01:26:43.174Z,101054.88
2023-04-02T01:29:13.911Z,101061.91
2023-04-02T01:31:41.321Z,101070.06
2023-04-02T01:34:12.234Z,101075.44
2023-04-02T01:36:50.016Z,101075.31
2023-04-02T01:39:31.068Z,101086.13
2023-04-02T01:42:04.960Z,101088.69
2023-04-02T01:44:38.222Z,101098.34
2023-04-02T01:47:10.473Z,101097.59
2023-04-02T01:49:37.368Z,101101.03
2023-04-02T01:52:04.860Z,101106.16
2023-04-02T01:54:31.793Z,101114.09
2023-04-02T01:56:58.513Z,101111.44
2023-04-02T01:59:25.454Z,101120.19
2023-04-02T02:02:00.385Z,101117.50
2023-04-02T02:04:27.364Z,101118.38
2023-04-02T02:06:55.929Z,101119.34
2023-04-02T02:09:24.882Z,101128.22
2023-04-02T02:11:52.096Z,101136.38
2023-04-02T02:14:21.188Z,101141.75
2023-04-02T02:16:48.661Z,101139.25
2023-04-02T02:19:28.498Z,101154.34
2023-04-02T02:21:58.401Z,101145.47
2023-04-02T02:24:28.458Z,101156.31
2023-04-02T02:27:05.263Z,101164.44
2023-04-02T02:29:36.086Z,101167.19
2023-04-02T02:32:03.747Z,101169.78
2023-04-02T02:34:37.504Z,101167.09
2023-04-02T02:37:11.655Z,101173.41
2023-04-02T02:39:42.278Z,101180.59
2023-04-02T02:42:15.882Z,101183.38
2023-04-02T02:44:46.387Z,101190.66
2023-04-02T02:47:16.368Z,101190.56
2023-04-02T02:49:47.492Z,101201.25
2023-04-02T02:52:17.237Z,101220.97
2023-04-02T02:54:47.156Z,101205.75
2023-04-02T02:57:18.850Z,101208.53
2023-04-02T02:59:46.420Z,101209.38
2023-04-02T03:02:15.902Z,101208.53
2023-04-02T03:04:47.800Z,101218.38
2023-04-02T03:07:15.797Z,101222.88
2023-04-02T03:09:53.639Z,101236.38
2023-04-02T03:12:32.504Z,101235.50
2023-04-02T03:15:05.482Z,101240.00
2023-04-02T03:17:36.772Z,101241.09
2023-04-02T03:20:12.918Z,101253.41
2023-04-02T03:22:45.856Z,101246.22
2023-04-02T03:25:24.419Z,101263.16
2023-04-02T03:27:56.492Z,101265.19
2023-04-02T03:30:30.411Z,101270.53
2023-04-02T03:33:01.135Z,101270.41
2023-04-02T03:35:35.260Z,101276.63
2023-04-02T03:38:06.432Z,101290.97
2023-04-02T03:40:38.303Z,101290.00
2023-04-02T03:43:12.812Z,101282.75
2023-04-02T03:45:41.891Z,101290.00
2023-04-02T03:48:13.405Z,101291.81
2023-04-02T03:50:47.215Z,101298.91
2023-04-02T03:53:13.988Z,101300.81
2023-04-02T03:55:42.414Z,101306.06
2023-04-02T03:58:16.904Z,101312.19
2023-04-02T04:00:49.447Z,101331.91
2023-04-02T04:03:19.964Z,101324.81
2023-04-02T04:05:51.998Z,101329.31
2023-04-02T04:08:23.770Z,101324.91
2023-04-02T04:10:52.426Z,101337.47
2023-04-02T04:13:28.801Z,101339.16
2023-04-02T04:16:00.338Z,101340.13
2023-04-02T04:18:33.248Z,101346.44
2023-04-02T04:21:03.568Z,101362.50
2023-04-02T04:23:34.492Z,101359.06
2023-04-02T04:26:03.908Z,101361.63
2023-04-02T04:28:36.241Z,101367.84
2023-04-02T04:31:13.012Z,101374.06
2023-04-02T04:33:43.381Z,101375.69
2023-04-02T04:36:21.540Z,101380.94
2023-04-02T04:38:51.239Z,101386.38
2023-04-02T04:41:24.208Z,101386.31
2023-04-02T04:43:54.421Z,101391.66
2023-04-02T04:46:27.882Z,101404.09
2023-04-02T04:49:00.385Z,101405.91
2023-04-02T04:51:34.540Z,101403.97
2023-04-02T04:54:01.180Z,101419.19
2023-04-02T04:56:30.361Z,101420.03
2023-04-02T04:59:02.141Z,101423.66
2023-04-02T05:01:36.385Z,101433.44
2023-04-02T05:04:09.377Z,101433.44
2023-04-02T05:06:41.530Z,101433.34
2023-04-02T05:09:24.225Z,101439.56
2023-04-02T05:12:03.588Z,101443.84
2023-04-02T05:14:36.575Z,101452.75
2023-04-02T05:17:07.423Z,101455.44
2023-04-02T05:19:41.099Z,101465.19
2023-04-02T05:22:22.365Z,101473.97
2023-04-02T05:24:58.531Z,101472.06
2023-04-02T05:27:33.590Z,101477.31
2023-04-02T05:30:10.158Z,101480.84
2023-04-02T05:32:43.369Z,101494.44
2023-04-02T05:35:16.569Z,101496.25
2023-04-02T05:37:45.689Z,101500.75
2023-04-02T05:40:19.837Z,101498.84
2023-04-02T05:42:50.517Z,101508.69
2023-04-02T05:45:26.914Z,101512.25
2023-04-02T05:47:56.877Z,101522.75
2023-04-02T05:50:27.807Z,101525.22
2023-04-02T05:53:02.041Z,101532.31
2023-04-02T05:55:48.950Z,101535.94
2023-04-02T05:58:35.405Z,101527.63
2023-04-02T06:01:16.356Z,101530.22
2023-04-02T06:03:50.205Z,101539.97
2023-04-02T06:06:25.541Z,101544.38
2023-04-02T06:08:58.344Z,101545.03
2023-04-02T06:11:29.388Z,101548.59
2023-04-02T06:13:56.096Z,101554.03
2023-04-02T06:16:29.335Z,101554.91
2023-04-02T06:18:57.023Z,101561.78
2023-04-02T06:21:23.788Z,101565.41
2023-04-02T06:23:55.584Z,101574.41
2023-04-02T06:26:27.346Z,101577.84
2023-04-02T06:29:00.301Z,101581.13
2023-04-02T06:31:34.448Z,101585.31
2023-04-02T06:34:01.496Z,101579.88
2023-04-02T06:36:28.234Z,101586.94
2023-04-02T06:39:01.917Z,101594.69
2023-04-02T06:41:28.697Z,101596.34
2023-04-02T06:43:58.666Z,101605.03
2023-04-02T06:46:30.945Z,101612.00
2023-04-02T06:49:04.954Z,101615.34
2023-04-02T06:51:35.026Z,101612.50
2023-04-02T06:54:03.314Z,101616.50
2023-04-02T06:56:41.764Z,101621.50
2023-04-02T06:59:09.084Z,101619.75
2023-04-02T07:01:39.767Z,101625.41
2023-04-02T07:04:07.011Z,101626.81
2023-04-02T07:06:33.847Z,101625.75
2023-04-02T07:09:00.494Z,101622.09
2023-04-02T07:11:28.527Z,101634.56
2023-04-02T07:13:55.336Z,101642.72
2023-04-02T07:16:24.079Z,101641.84
2023-04-02T07:18:50.989Z,101646.34
2023-04-02T07:21:17.882Z,101644.34
2023-04-02T07:23:44.633Z,101652.19
2023-04-02T07:26:14.829Z,101655.63
2023-04-02T07:28:43.148Z,101657.25
2023-04-02T07:31:16.007Z,101656.22
2023-04-02T07:33:42.831Z,101663.38
2023-04-02T07:36:16.342Z,101667.88
2023-04-02T07:38:43.244Z,101673.91
2023-04-02T07:41:10.528Z,101661.06
2023-04-02T07:43:37.602Z,101680.41
2023-04-02T07:46:06.568Z,101684.63
2023-04-02T07:48:33.262Z,101689.56
2023-04-02T07:51:00.019Z,101692.09
2023-04-02T07:53:29.941Z,101698.09
2023-04-02T07:55:57.388Z,101699.84
2023-04-02T07:58:24.059Z,101698.69
2023-04-02T08:00:50.701Z,101701.25
2023-04-02T08:03:19.237Z,101707.59
2023-04-02T08:05:50.930Z,101712.09
2023-04-02T08:08:22.426Z,101721.09
2023-04-02T08:10:49.590Z,101716.38
2023-04-02T08:13:17.623Z,101718.78
2023-04-02T08:15:44.955Z,101728.47
2023-04-02T08:18:11.760Z,101739.78
2023-04-02T08:20:39.797Z,101733.47
2023-04-02T08:23:13.369Z,101739.47
2023-04-02T08:25:39.974Z,101741.13
2023-04-02T08:28:06.657Z,101743.59
2023-04-02T08:30:33.388Z,101740.69
2023-04-02T08:33:00.107Z,101755.56
2023-04-02T08:35:26.774Z,101770.94
2023-04-02T08:37:54.727Z,101772.19
2023-04-02T08:40:26.902Z,101772.19
2023-04-02T08:43:14.299Z,101761.16
2023-04-02T08:45:50.544Z,101770.13
2023-04-02T08:48:18.063Z,101770.38
2023-04-02T08:50:45.739Z,101774.94
2023-04-02T08:53:19.512Z,101779.06
2023-04-02T08:55:52.530Z,101775.88
2023-04-02T08:58:29.524Z,101780.63
2023-04-02T09:01:00.123Z,101774.00
2023-04-02T09:03:31.124Z,101773.31
2023-04-02T09:05:59.586Z,101784.84
2023-04-02T09:08:29.764Z,101782.16
2023-04-02T09:11:02.363Z,101780.13
2023-04-02T09:13:31.570Z,101798.94
2023-04-02T09:16:03.812Z,101791.66
2023-04-02T09:18:32.112Z,101792.91
2023-04-02T09:21:00.492Z,101793.78
2023-04-02T09:23:28.847Z,101794.00
2023-04-02T09:26:04.218Z,101798.75
2023-04-02T09:28:31.861Z,101792.72
2023-04-02T09:31:09.235Z,101798.63
2023-04-02T09:33:46.851Z,101798.84
2023-04-02T09:36:32.121Z,101801.97
2023-04-02T09:39:03.951Z,101810.91
2023-04-02T09:41:31.030Z,101818.56
2023-04-02T09:44:18.932Z,101817.81
2023-04-02T09:46:54.702Z,101819.84
2023-04-02T09:49:24.999Z,101825.22
2023-04-02T09:52:19.364Z,101835.78
2023-04-02T09:55:04.599Z,101835.78
2023-04-02T09:57:31.459Z,101835.75
2023-04-02T10:00:12.354Z,101847.72
2023-04-02T10:03:02.548Z,101835.16
2023-04-02T10:05:40.481Z,101848.69
2023-04-02T10:08:17.921Z,101843.63
2023-04-02T10:10:50.375Z,101840.19
2023-04-02T10:13:26.646Z,101852.25
2023-04-02T10:15:58.530Z,101853.34
2023-04-02T10:18:36.174Z,101852.72
2023-04-02T10:21:04.541Z,101857.84
2023-04-02T10:23:31.882Z,101860.25
2023-04-02T10:26:09.900Z,101863.22
2023-04-02T10:28:52.874Z,101869.69
2023-04-02T10:31:24.048Z,101873.44
2023-04-02T10:33:58.597Z,101882.22
2023-04-02T10:36:41.434Z,101889.00
2023-04-02T10:39:15.688Z,101878.03
2023-04-02T10:41:49.871Z,101877.78
2023-04-02T10:44:33.788Z,101874.81
2023-04-02T10:47:09.184Z,101874.41
2023-04-02T10:49:42.222Z,101882.44
2023-04-02T10:52:12.943Z,101886.13
2023-04-02T10:54:45.449Z,101883.91
2023-04-02T10:57:22.100Z,101902.50
2023-04-02T10:59:54.153Z,101882.06
2023-04-02T11:02:35.837Z,101901.03
2023-04-02T11:05:12.824Z,101904.06
2023-04-02T11:07:53.015Z,101901.25
2023-04-02T11:10:21.071Z,101910.28
2023-04-02T11:12:56.370Z,101912.00
2023-04-02T11:15:23.611Z,101914.56
2023-04-02T11:17:50.447Z,101927.81
2023-04-02T11:20:42.858Z,101922.75
2023-04-02T11:23:11.568Z,101926.25
2023-04-02T11:25:38.548Z,101919.28
2023-04-02T11:28:25.891Z,101921.78
2023-04-02T11:30:53.040Z,101926.13
2023-04-02T11:33:43.151Z,101926.97
2023-04-02T11:36:48.861Z,101936.41
2023-04-02T11:39:45.922Z,101927.91
2023-04-02T11:42:26.826Z,101939.59
2023-04-02T11:44:56.330Z,101940.25
2023-04-02T11:47:24.404Z,101935.31
2023-04-02T11:50:02.123Z,101941.84
2023-04-02T11:52:36.325Z,101945.66
2023-04-02T11:55:20.086Z,101949.09
2023-04-02T11:57:57.583Z,101955.28
2023-04-02T12:00:47.247Z,101949.88
2023-04-02T12:03:37.026Z,101954.91
2023-04-02T12:06:08.493Z,101961.50
2023-04-02T12:08:56.948Z,101967.56
2023-04-02T12:11:32.649Z,101968.28
2023-04-02T12:13:59.917Z,101980.22
2023-04-02T12:16:28.062Z,101976.41
2023-04-02T12:18:55.053Z,101990.69
2023-04-02T12:21:24.076Z,101983.53
2023-04-02T12:23:53.663Z,101991.16
2023-04-02T12:26:32.679Z,101992.06
2023-04-02T12:29:15.643Z,102004.88
2023-04-02T12:31:45.545Z,101999.22
2023-04-02T12:34:15.409Z,101998.69
2023-04-02T12:36:52.402Z,101994.31
2023-04-02T12:39:19.097Z,101997.44
2023-04-02T12:41:45.771Z,102028.31
2023-04-02T12:44:15.066Z,102010.81
2023-04-02T12:46:42.413Z,102022.63
2023-04-02T12:49:21.219Z,102017.34
2023-04-02T12:51:48.609Z,102027.72
2023-04-02T12:54:17.270Z,102015.44
2023-04-02T12:56:44.549Z,102021.38
2023-04-02T12:59:29.295Z,102024.22
2023-04-02T13:01:57.545Z,102025.59
2023-04-02T13:04:26.202Z,102031.00
2023-04-02T13:06:53.428Z,102032.47
2023-04-02T13:09:30.648Z,102034.44
2023-04-02T13:11:58.231Z,102034.31
2023-04-02T13:14:25.736Z,102031.25
2023-04-02T13:16:53.624Z,102025.88
2023-04-02T13:19:30.954Z,102029.28
2023-04-02T13:22:00.539Z,102044.25
2023-04-02T13:24:29.199Z,102039.78
2023-04-02T13:26:57.403Z,102039.78
2023-04-02T13:29:27.222Z,102042.38
2023-04-02T13:31:56.849Z,102048.44
2023-04-02T13:34:23.888Z,102049.00
2023-04-02T13:36:53.633Z,102058.94
2023-04-02T13:39:20.906Z,102052.22
2023-04-02T13:41:50.026Z,102052.75
2023-04-02T13:44:22.902Z,102055.25
2023-04-02T13:46:50.181Z,102063.09
2023-04-02T13:49:17.199Z,102056.09
2023-04-02T13:51:45.983Z,102063.13
2023-04-02T13:54:20.165Z,102060.53
2023-04-02T13:56:47.182Z,102075.19
2023-04-02T13:59:14.367Z,102064.94
2023-04-02T14:01:43.235Z,102063.59
2023-04-02T14:04:10.691Z,102069.59
2023-04-02T14:07:07.183Z,102061.41
2023-04-02T14:09:47.425Z,102077.53
2023-04-02T14:12:23.734Z,102081.69
2023-04-02T14:15:03.351Z,102080.94
2023-04-02T14:17:41.253Z,102081.75
2023-04-02T14:20:25.371Z,102081.03
2023-04-02T14:23:05.692Z,102097.00
2023-04-02T14:25:42.260Z,102086.78
2023-04-02T14:28:19.279Z,102080.31
2023-04-02T14:30:55.565Z,102089.16
2023-04-02T14:33:32.706Z,102097.28
2023-04-02T14:36:09.050Z,102102.78
2023-04-02T14:38:41.851Z,102105.22
2023-04-02T14:41:13.717Z,102110.66
2023-04-02T14:43:45.480Z,102110.94
2023-04-02T14:46:12.309Z,102115.28
2023-04-02T14:48:46.167Z,102119.78
2023-04-02T14:51:17.344Z,102124.75
2023-04-02T14:53:52.552Z,102119.78
2023-04-02T14:56:23.941Z,102127.88
2023-04-02T14:58:59.190Z,102129.09
2023-04-02T15:01:31.518Z,102122.41
2023-04-02T15:04:02.967Z,102131.00
2023-04-02T15:06:35.693Z,102133.84
2023-04-02T15:09:09.606Z,102141.03
2023-04-02T15:11:41.474Z,102156.50
2023-04-02T15:14:14.793Z,102145.59
2023-04-02T15:16:41.739Z,102145.94
2023-04-02T15:19:12.930Z,102149.06
2023-04-02T15:21:57.478Z,102153.81
2023-04-02T15:24:35.936Z,102146.97
2023-04-02T15:27:24.348Z,102154.22
2023-04-02T15:29:56.253Z,102167.72
2023-04-02T15:32:35.434Z,102184.94
2023-04-02T15:35:12.610Z,102176.31
2023-04-02T15:37:45.544Z,102184.06
2023-04-02T15:40:43.880Z,102179.31
2023-04-02T15:43:19.883Z,102185.03
2023-04-02T15:45:59.015Z,102182.75
2023-04-02T15:48:59.143Z,102197.69
2023-04-02T15:51:36.972Z,102194.22
2023-04-02T15:54:19.438Z,102198.09
2023-04-02T15:56:55.538Z,102209.34
2023-04-02T15:59:40.934Z,102217.91
2023-04-02T16:02:26.280Z,102216.06
2023-04-02T16:05:00.981Z,102218.97
2023-04-02T16:07:51.644Z,102207.19
2023-04-02T16:10:41.330Z,102216.16
2023-04-02T16:13:17.765Z,102218.97
2023-04-02T16:15:51.634Z,102225.56
2023-04-02T16:18:30.564Z,102230.53
2023-04-02T16:21:01.279Z,102245.63
2023-04-02T16:23:33.427Z,102240.84
2023-04-02T16:26:08.006Z,102254.03
2023-04-02T16:28:43.005Z,102257.91
2023-04-02T16:31:18.774Z,102254.84
2023-04-02T16:33:57.597Z,102261.91
2023-04-02T16:36:36.728Z,102270.56
2023-04-02T16:39:13.828Z,102278.09
2023-04-02T16:41:52.243Z,102285.56
2023-04-02T16:44:28.654Z,102285.78
2023-04-02T16:47:12.657Z,102293.75
2023-04-02T16:49:45.859Z,102293.06
2023-04-02T16:52:27.836Z,102297.78
2023-04-02T16:55:11.376Z,102300.78
2023-04-02T16:57:49.153Z,102303.09
2023-04-02T17:00:23.520Z,102308.25
2023-04-02T17:03:05.812Z,102301.44
2023-04-02T17:05:34.107Z,102302.47
2023-04-02T17:08:12.927Z,102311.69
2023-04-02T17:10:49.737Z,102304.97
2023-04-02T17:13:23.968Z,102310.72
2023-04-02T17:15:55.306Z,102306.75
2023-04-02T17:18:23.533Z,102322.50
2023-04-02T17:20:51.397Z,102330.06
2023-04-02T17:23:19.650Z,102343.94
2023-04-02T17:25:53.031Z,102343.44
2023-04-02T17:28:22.618Z,102343.03
2023-04-02T17:30:53.340Z,102346.84
2023-04-02T17:33:20.010Z,102357.94
2023-04-02T17:36:02.818Z,102359.97
2023-04-02T17:38:37.606Z,102359.28
2023-04-02T17:41:13.397Z,102365.66
2023-04-02T17:43:47.935Z,102373.03
2023-04-02T17:46:25.059Z,102377.66
2023-04-02T17:49:00.242Z,102378.00
2023-04-02T17:51:37.554Z,102383.63
2023-04-02T17:54:19.338Z,102391.13
2023-04-02T17:57:01.264Z,102388.88
2023-04-02T17:59:41.093Z,102393.75
2023-04-02T18:02:25.775Z,102394.06
2023-04-02T18:05:06.626Z,102405.97
2023-04-02T18:07:41.119Z,102413.44
2023-04-02T18:10:15.301Z,102415.38
2023-04-02T18:12:55.230Z,102422.03
2023-04-02T18:15:39.333Z,102429.56
2023-04-02T18:18:15.307Z,102421.81
2023-04-02T18:20:53.674Z,102424.75
2023-04-02T18:23:30.980Z,102428.53
2023-04-02T18:26:06.818Z,102438.47
2023-04-02T18:28:43.530Z,102437.06
2023-04-02T18:31:19.185Z,102439.06
2023-04-02T18:34:12.695Z,102445.59
2023-04-02T18:36:48.728Z,102447.63
2023-04-02T18:39:27.808Z,102457.66
2023-04-02T18:42:02.835Z,102463.19
2023-04-02T18:44:49.160Z,102464.34
2023-04-02T18:47:22.254Z,102469.88
2023-04-02T18:49:53.832Z,102477.22
2023-04-02T18:52:20.536Z,102479.16
2023-04-02T18:54:52.295Z,102485.72
2023-04-02T18:57:22.966Z,102492.25
2023-04-02T18:59:57.391Z,102497.84
2023-04-02T19:02:38.781Z,102501.53
2023-04-02T19:05:13.167Z,102510.66
2023-04-02T19:07:42.811Z,102508.28
2023-04-02T19:10:23.569Z,102514.63
2023-04-02T19:12:50.207Z,102510.31
2023-04-02T19:15:17.968Z,102512.19
2023-04-02T19:17:48.123Z,102510.69
2023-04-02T19:20:26.555Z,102523.34
2023-04-02T19:23:00.735Z,102527.19
2023-04-02T19:25:44.256Z,102528.34
2023-04-02T19:28:15.275Z,102534.78
2023-04-02T19:31:03.439Z,102535.91
2023-04-02T19:33:41.257Z,102546.84
2023-04-02T19:36:25.344Z,102543.53
2023-04-02T19:39:05.199Z,102545.41
2023-04-02T19:41:39.903Z,102548.22
2023-04-02T19:44:10.696Z,102551.88
2023-04-02T19:46:38.662Z,102551.97
2023-04-02T19:49:10.287Z,102560.13
2023-04-02T19:51:37.041Z,102557.66
2023-04-02T19:54:04.188Z,102567.72
2023-04-02T19:56:30.869Z,102561.69
2023-04-02T19:59:02.249Z,102566.31
2023-04-02T20:01:29.568Z,102565.66
2023-04-02T20:03:56.222Z,102571.19
2023-04-02T20:06:22.917Z,102570.38
2023-04-02T20:08:49.506Z,102574.94
2023-04-02T20:11:16.269Z,102570.59
2023-04-02T20:13:42.992Z,102586.78
2023-04-02T20:16:10.988Z,102585.97
2023-04-02T20:18:37.629Z,102586.09
2023-04-02T20:21:05.259Z,102591.50
2023-04-02T20:23:31.945Z,102591.69
2023-04-02T20:25:58.601Z,102598.13
2023-04-02T20:28:27.065Z,102606.28
2023-04-02T20:30:53.841Z,102610.84
2023-04-02T20:33:24.375Z,102614.59
2023-04-02T20:35:53.029Z,102615.63
2023-04-02T20:38:19.752Z,102624.59
2023-04-02T20:40:46.376Z,102616.66
2023-04-02T20:43:13.499Z,102621.22
2023-04-02T20:45:40.072Z,102623.03
2023-04-02T20:48:06.976Z,102624.97
2023-04-02T20:50:35.219Z,102634.03
2023-04-02T20:53:02.075Z,102630.59
2023-04-02T20:55:28.642Z,102641.44
2023-04-02T20:57:55.276Z,102642.44
2023-04-02T21:00:21.903Z,102642.44
2023-04-02T21:02:48.623Z,102638.16
2023-04-02T21:05:15.373Z,102647.13
2023-04-02T21:07:43.327Z,102641.00
2023-04-02T21:10:10.753Z,102640.16
2023-04-02T21:12:37.346Z,102651.00
2023-04-02T21:15:04.381Z,102655.47
2023-04-02T21:17:30.991Z,102652.84
2023-04-02T21:19:57.621Z,102647.63
2023-04-02T21:22:24.230Z,102656.66
2023-04-02T21:24:52.226Z,102658.50
2023-04-02T21:27:18.820Z,102671.91
2023-04-02T21:29:45.372Z,102669.31
2023-04-02T21:32:20.765Z,102669.34
2023-04-02T21:34:48.474Z,102675.69
2023-04-02T21:37:15.098Z,102670.41
2023-04-02T21:39:42.160Z,102667.78
2023-04-02T21:42:10.197Z,102670.53
2023-04-02T21:44:36.798Z,102674.16
2023-04-02T21:47:03.462Z,102685.81
2023-04-02T21:49:30.066Z,102680.53
2023-04-02T21:51:56.629Z,102687.69
2023-04-02T21:54:23.356Z,102686.94
2023-04-02T21:56:50.142Z,102695.03
2023-04-02T21:59:18.860Z,102693.28
2023-04-02T22:01:47.826Z,102696.88
2023-04-02T22:04:17.321Z,102702.28
2023-04-02T22:06:44.339Z,102699.72
2023-04-02T22:09:13.164Z,102700.66
2023-04-02T22:11:42.961Z,102707.91
2023-04-02T22:14:09.849Z,102707.03
2023-04-02T22:16:38.852Z,102710.63
2023-04-02T22:19:08.303Z,102707.16
2023-04-02T22:21:36.096Z,102711.75
2023-04-02T22:24:04.579Z,102715.38
2023-04-02T22:26:32.679Z,102712.69
2023-04-02T22:29:00.132Z,102716.38
2023-04-02T22:31:28.731Z,102718.19
2023-04-02T22:33:57.795Z,102725.38
2023-04-02T22:36:26.469Z,102720.13
2023-04-02T22:38:53.257Z,102721.91
2023-04-02T22:41:22.442Z,102723.78
2023-04-02T22:43:49.612Z,102726.50
2023-04-02T22:46:17.814Z,102740.78
2023-04-02T22:48:45.561Z,102742.56
2023-04-02T22:51:15.336Z,102740.88
2023-04-02T22:53:42.406Z,102741.81
2023-04-02T22:56:11.064Z,102753.44
2023-04-02T22:58:38.515Z,102745.50
2023-04-02T23:01:07.201Z,102746.53
2023-04-02T23:03:34.295Z,102760.88
2023-04-02T23:06:03.079Z,102765.34
2023-04-02T23:08:31.079Z,102758.25
2023-04-02T23:11:02.216Z,102759.16
2023-04-02T23:13:28.792Z,102761.03
2023-04-02T23:15:55.460Z,102764.63
2023-04-02T23:18:22.219Z,102772.75
2023-04-02T23:20:48.797Z,102762.13
2023-04-02T23:23:15.475Z,102770.16
2023-04-02T23:25:43.464Z,102764.00
2023-04-02T23:28:12.273Z,102764.91
2023-04-02T23:30:39.070Z,102765.91
2023-04-02T23:33:05.899Z,102764.16
2023-04-02T23:35:32.925Z,102771.28
2023-04-02T23:37:59.760Z,102774.88
2023-04-02T23:40:26.334Z,102775.91
2023-04-02T23:42:54.367Z,102778.56
2023-04-02T23:45:20.980Z,102777.75
2023-04-02T23:47:47.660Z,102778.69
2023-04-02T23:50:14.289Z,102778.78
2023-04-02T23:52:40.943Z,102782.38
2023-04-02T23:55:08.296Z,102783.31
2023-04-02T23:57:34.959Z,102788.72
